sensor_id;sensor_type;location;lat;lon;timestamp;P1;durP1;ratioP1;P2;durP2;ratioP2
3735;SDS011;1883;48.202;16.310;2023-07-13T00:10:08;11.43;;;2.63;;
3735;SDS011;1883;48.202;16.310;2023-07-13T00:15:12;10.37;;;3.23;;
3735;SDS011;1883;48.202;16.310;2023-07-13T00:17:41;7.63;;;2.70;;
3735;SDS011;1883;48.202;16.310;2023-07-13T00:20:10;9.10;;;3.30;;
3735;SDS011;1883;48.202;16.310;2023-07-13T00:22:38;10.30;;;3.43;;
3735;SDS011;1883;48.202;16.310;2023-07-13T00:25:08;11.23;;;3.50;;
3735;SDS011;1883;48.202;16.310;2023-07-13T00:27:36;9.13;;;3.20;;
3735;SDS011;1883;48.202;16.310;2023-07-13T00:30:03;9.20;;;3.03;;
3735;SDS011;1883;48.202;16.310;2023-07-13T00:32:32;10.10;;;3.03;;
3735;SDS011;1883;48.202;16.310;2023-07-13T00:34:59;9.13;;;3.10;;
3735;SDS011;1883;48.202;16.310;2023-07-13T00:37:25;10.93;;;2.67;;
3735;SDS011;1883;48.202;16.310;2023-07-13T00:39:53;9.03;;;3.20;;
3735;SDS011;1883;48.202;16.310;2023-07-13T00:42:21;10.13;;;3.00;;
3735;SDS011;1883;48.202;16.310;2023-07-13T00:45:06;14.00;;;2.90;;
3735;SDS011;1883;48.202;16.310;2023-07-13T00:47:55;9.33;;;2.97;;
3735;SDS011;1883;48.202;16.310;2023-07-13T00:50:23;9.80;;;3.13;;
3735;SDS011;1883;48.202;16.310;2023-07-13T00:58:09;7.17;;;2.13;;
3735;SDS011;1883;48.202;16.310;2023-07-13T01:00:37;9.47;;;2.50;;
3735;SDS011;1883;48.202;16.310;2023-07-13T01:08:17;7.40;;;2.00;;
3735;SDS011;1883;48.202;16.310;2023-07-13T01:10:50;12.20;;;1.50;;
3735;SDS011;1883;48.202;16.310;2023-07-13T01:13:20;5.70;;;1.40;;
3735;SDS011;1883;48.202;16.310;2023-07-13T01:15:48;6.93;;;1.70;;
3735;SDS011;1883;48.202;16.310;2023-07-13T01:18:17;7.07;;;1.77;;
3735;SDS011;1883;48.202;16.310;2023-07-13T01:20:51;10.90;;;2.07;;
3735;SDS011;1883;48.202;16.310;2023-07-13T01:23:19;7.40;;;1.50;;
3735;SDS011;1883;48.202;16.310;2023-07-13T01:25:46;7.80;;;1.50;;
3735;SDS011;1883;48.202;16.310;2023-07-13T01:28:13;6.97;;;1.70;;
3735;SDS011;1883;48.202;16.310;2023-07-13T01:30:42;7.57;;;1.50;;
3735;SDS011;1883;48.202;16.310;2023-07-13T01:33:11;6.37;;;1.47;;
3735;SDS011;1883;48.202;16.310;2023-07-13T02:01:34;7.77;;;1.60;;
3735;SDS011;1883;48.202;16.310;2023-07-13T02:04:02;7.20;;;1.50;;
3735;SDS011;1883;48.202;16.310;2023-07-13T02:06:29;9.07;;;2.20;;
3735;SDS011;1883;48.202;16.310;2023-07-13T02:08:56;10.03;;;1.90;;
3735;SDS011;1883;48.202;16.310;2023-07-13T02:13:59;9.47;;;1.90;;
3735;SDS011;1883;48.202;16.310;2023-07-13T02:37:05;8.17;;;2.03;;
3735;SDS011;1883;48.202;16.310;2023-07-13T02:39:32;7.50;;;2.10;;
3735;SDS011;1883;48.202;16.310;2023-07-13T02:41:59;8.47;;;1.90;;
3735;SDS011;1883;48.202;16.310;2023-07-13T02:44:26;8.47;;;2.20;;
3735;SDS011;1883;48.202;16.310;2023-07-13T02:57:16;8.40;;;2.40;;
3735;SDS011;1883;48.202;16.310;2023-07-13T02:59:43;9.07;;;2.30;;
3735;SDS011;1883;48.202;16.310;2023-07-13T03:02:10;8.80;;;2.60;;
3735;SDS011;1883;48.202;16.310;2023-07-13T03:04:37;8.60;;;2.40;;
3735;SDS011;1883;48.202;16.310;2023-07-13T03:22:39;4.90;;;0.80;;
3735;SDS011;1883;48.202;16.310;2023-07-13T03:25:07;4.30;;;0.60;;
3735;SDS011;1883;48.202;16.310;2023-07-13T03:27:34;4.37;;;0.60;;
3735;SDS011;1883;48.202;16.310;2023-07-13T03:30:01;4.80;;;0.70;;
